createdAt,value
2023-10-15T00:01:12.411Z,17.64
2023-10-15T00:03:41.138Z,17.60
2023-10-15T00:06:10.167Z,17.64
2023-10-15T00:08:38.054Z,17.67
2023-10-15T00:11:20.112Z,17.60
2023-10-15T00:13:49.564Z,17.68
2023-10-15T00:16:23.547Z,17.69
2023-10-15T00:18:51.583Z,17.62
2023-10-15T00:21:21.108Z,17.60
2023-10-15T00:23:49.761Z,17.51
2023-10-15T00:26:18.668Z,17.52
2023-10-15T00:28:47.358Z,17.31
2023-10-15T00:31:16.060Z,17.39
2023-10-15T00:33:48.110Z,17.29
2023-10-15T00:36:17.211Z,17.20
2023-10-15T00:38:46.511Z,16.94
2023-10-15T00:41:16.098Z,16.95
2023-10-15T00:44:11.087Z,16.80
2023-10-15T00:46:39.848Z,16.51
2023-10-15T00:49:19.088Z,16.58
2023-10-15T00:51:47.908Z,16.32
2023-10-15T00:54:18.279Z,16.35
2023-10-15T00:56:51.309Z,16.45
2023-10-15T00:59:19.102Z,16.17
2023-10-15T01:01:55.758Z,16.25
2023-10-15T01:04:27.331Z,16.17
2023-10-15T01:07:01.612Z,16.00
2023-10-15T01:09:31.647Z,16.10
2023-10-15T01:12:19.988Z,15.93
2023-10-15T01:14:49.819Z,15.78
2023-10-15T01:17:25.055Z,15.83
2023-10-15T01:19:53.035Z,15.79
2023-10-15T01:22:23.652Z,15.65
2023-10-15T01:24:55.366Z,15.71
2023-10-15T01:27:32.161Z,15.46
2023-10-15T01:30:01.342Z,15.44
2023-10-15T01:32:33.086Z,15.44
2023-10-15T01:35:03.077Z,15.41
2023-10-15T01:37:31.853Z,15.28
2023-10-15T01:40:18.633Z,15.21
2023-10-15T01:42:48.249Z,15.15
2023-10-15T01:45:18.697Z,15.17
2023-10-15T01:47:51.853Z,15.27
2023-10-15T01:50:34.634Z,15.22
2023-10-15T01:53:03.313Z,15.11
2023-10-15T01:55:37.735Z,15.06
2023-10-15T01:58:08.156Z,14.97
2023-10-15T02:00:45.439Z,15.02
2023-10-15T02:03:14.370Z,14.95
2023-10-15T02:05:42.808Z,14.83
2023-10-15T02:08:24.834Z,14.69
2023-10-15T02:10:57.415Z,14.67
2023-10-15T02:13:28.450Z,14.73
2023-10-15T02:15:57.928Z,14.64
2023-10-15T02:18:31.221Z,14.76
2023-10-15T02:20:59.083Z,14.79
2023-10-15T02:23:27.154Z,14.69
2023-10-15T02:26:00.159Z,14.50
2023-10-15T02:28:34.185Z,14.61
2023-10-15T02:31:06.542Z,14.71
2023-10-15T02:33:35.394Z,14.75
2023-10-15T02:36:09.974Z,14.73
2023-10-15T02:38:38.920Z,14.61
2023-10-15T02:41:08.209Z,14.53
2023-10-15T02:43:49.797Z,14.59
2023-10-15T02:46:23.575Z,14.47
2023-10-15T02:48:55.161Z,14.64
2023-10-15T02:51:28.047Z,14.76
2023-10-15T02:54:04.471Z,14.60
2023-10-15T02:56:32.260Z,14.62
2023-10-15T02:59:00.715Z,14.68
2023-10-15T03:01:28.616Z,14.66
2023-10-15T03:03:57.597Z,14.53
2023-10-15T03:06:28.754Z,14.52
2023-10-15T03:08:57.846Z,14.38
2023-10-15T03:11:32.948Z,14.47
2023-10-15T03:14:05.118Z,14.47
2023-10-15T03:16:37.217Z,14.43
2023-10-15T03:19:25.804Z,14.59
2023-10-15T03:22:00.684Z,14.41
2023-10-15T03:24:33.563Z,14.41
2023-10-15T03:27:02.072Z,14.16
2023-10-15T03:29:30.939Z,14.40
2023-10-15T03:32:11.273Z,14.53
2023-10-15T03:34:56.047Z,14.44
2023-10-15T03:37:24.069Z,14.49
2023-10-15T03:39:57.628Z,14.56
2023-10-15T03:42:28.816Z,14.46
2023-10-15T03:45:02.421Z,14.49
2023-10-15T03:47:30.186Z,14.50
2023-10-15T03:49:58.051Z,14.43
2023-10-15T03:52:28.470Z,14.38
2023-10-15T03:54:57.347Z,14.47
2023-10-15T03:57:29.591Z,14.54
2023-10-15T03:59:57.385Z,14.36
2023-10-15T04:02:40.132Z,14.34
2023-10-15T04:05:14.137Z,14.46
2023-10-15T04:07:51.031Z,14.34
2023-10-15T04:10:25.717Z,14.28
2023-10-15T04:12:53.980Z,14.34
2023-10-15T04:15:23.996Z,14.23
2023-10-15T04:17:53.172Z,14.23
2023-10-15T04:20:37.025Z,14.36
2023-10-15T04:23:05.556Z,14.26
2023-10-15T04:25:34.785Z,14.25
2023-10-15T04:28:12.092Z,14.21
2023-10-15T04:30:41.369Z,14.19
2023-10-15T04:33:15.214Z,14.11
2023-10-15T04:35:44.017Z,14.20
2023-10-15T04:38:22.954Z,14.11
2023-10-15T04:41:00.021Z,14.16
2023-10-15T04:43:29.248Z,14.04
2023-10-15T04:45:59.046Z,14.26
2023-10-15T04:48:34.208Z,14.48
2023-10-15T04:51:14.069Z,14.40
2023-10-15T04:53:46.212Z,14.44
2023-10-15T04:56:14.079Z,14.34
2023-10-15T04:58:42.245Z,14.26
2023-10-15T05:01:11.014Z,14.22
2023-10-15T05:03:39.758Z,14.38
2023-10-15T05:06:12.521Z,14.21
2023-10-15T05:08:42.088Z,14.11
2023-10-15T05:11:13.003Z,14.07
2023-10-15T05:13:43.980Z,14.18
2023-10-15T05:16:12.192Z,14.07
2023-10-15T05:18:39.964Z,14.09
2023-10-15T05:21:07.710Z,13.96
2023-10-15T05:23:35.474Z,13.95
2023-10-15T05:26:03.339Z,13.88
2023-10-15T05:28:31.112Z,13.80
2023-10-15T05:30:59.710Z,13.78
2023-10-15T05:33:27.884Z,13.69
2023-10-15T05:35:58.401Z,13.72
2023-10-15T05:38:29.019Z,13.70
2023-10-15T05:41:00.318Z,13.57
2023-10-15T05:43:28.382Z,13.72
2023-10-15T05:45:56.359Z,13.65
2023-10-15T05:48:24.204Z,13.74
2023-10-15T05:50:52.741Z,13.68
2023-10-15T05:53:20.639Z,13.68
2023-10-15T05:55:48.561Z,13.66
2023-10-15T05:58:16.396Z,13.38
2023-10-15T06:00:44.153Z,13.49
2023-10-15T06:03:12.857Z,13.51
2023-10-15T06:05:44.218Z,13.59
2023-10-15T06:08:12.095Z,13.69
2023-10-15T06:10:39.919Z,13.59
2023-10-15T06:13:08.139Z,13.49
2023-10-15T06:15:35.917Z,13.46
2023-10-15T06:18:04.858Z,13.46
2023-10-15T06:20:32.786Z,13.63
2023-10-15T06:23:05.563Z,13.48
2023-10-15T06:25:33.767Z,13.46
2023-10-15T06:28:03.034Z,13.38
2023-10-15T06:30:30.813Z,13.65
2023-10-15T06:33:02.117Z,13.50
2023-10-15T06:35:29.938Z,13.59
2023-10-15T06:38:01.252Z,13.32
2023-10-15T06:40:30.263Z,13.14
2023-10-15T06:43:05.140Z,13.60
2023-10-15T06:45:33.991Z,13.36
2023-10-15T06:48:06.438Z,12.96
2023-10-15T06:50:34.749Z,13.19
2023-10-15T06:53:03.103Z,13.36
2023-10-15T06:55:33.116Z,13.18
2023-10-15T06:58:02.526Z,13.34
2023-10-15T07:00:32.965Z,13.12
2023-10-15T07:03:01.637Z,13.19
2023-10-15T07:05:29.674Z,12.90
2023-10-15T07:07:59.071Z,13.00
2023-10-15T07:10:29.817Z,13.13
2023-10-15T07:12:58.807Z,12.94
2023-10-15T07:15:27.282Z,13.23
2023-10-15T07:17:56.769Z,12.89
2023-10-15T07:20:28.971Z,12.94
2023-10-15T07:23:02.048Z,13.11
2023-10-15T07:25:29.976Z,13.08
2023-10-15T07:28:01.527Z,13.06
2023-10-15T07:30:32.497Z,13.12
2023-10-15T07:33:00.763Z,13.06
2023-10-15T07:35:31.524Z,13.28
2023-10-15T07:38:04.211Z,13.21
2023-10-15T07:40:36.104Z,13.14
2023-10-15T07:43:04.653Z,13.10
2023-10-15T07:45:36.259Z,13.17
2023-10-15T07:48:06.910Z,13.07
2023-10-15T07:50:36.377Z,13.07
2023-10-15T07:53:06.041Z,13.03
2023-10-15T07:55:35.455Z,13.24
2023-10-15T07:58:03.647Z,13.07
2023-10-15T08:00:32.069Z,13.01
2023-10-15T08:03:02.823Z,12.84
2023-10-15T08:05:34.944Z,13.03
2023-10-15T08:08:07.066Z,13.01
2023-10-15T08:10:38.581Z,12.74
2023-10-15T08:13:08.623Z,12.83
2023-10-15T08:15:37.793Z,12.96
2023-10-15T08:18:07.452Z,12.97
2023-10-15T08:20:37.369Z,13.06
2023-10-15T08:23:06.623Z,12.99
2023-10-15T08:25:37.779Z,13.08
2023-10-15T08:28:08.416Z,12.88
2023-10-15T08:30:39.184Z,13.07
2023-10-15T08:33:12.481Z,13.04
2023-10-15T08:35:41.798Z,13.11
2023-10-15T08:38:14.210Z,13.13
2023-10-15T08:40:47.037Z,13.08
2023-10-15T08:43:33.915Z,13.11
2023-10-15T08:46:11.162Z,13.39
2023-10-15T08:48:43.320Z,13.29
2023-10-15T08:51:14.394Z,13.35
2023-10-15T08:53:44.196Z,13.31
2023-10-15T08:56:15.882Z,13.46
2023-10-15T08:58:46.555Z,13.46
2023-10-15T09:01:15.682Z,13.56
2023-10-15T09:03:44.457Z,13.66
2023-10-15T09:06:16.038Z,13.64
2023-10-15T09:08:44.990Z,13.68
2023-10-15T09:11:14.227Z,13.66
2023-10-15T09:13:42.346Z,13.67
2023-10-15T09:16:11.552Z,13.51
2023-10-15T09:18:39.732Z,13.30
2023-10-15T09:21:09.488Z,13.48
2023-10-15T09:23:39.044Z,13.44
2023-10-15T09:26:09.766Z,13.31
2023-10-15T09:28:39.599Z,13.52
2023-10-15T09:31:12.892Z,13.55
2023-10-15T09:33:42.037Z,13.45
2023-10-15T09:36:11.542Z,13.60
2023-10-15T09:38:40.710Z,13.75
2023-10-15T09:41:08.546Z,13.69
2023-10-15T09:43:38.385Z,13.79
2023-10-15T09:46:08.585Z,13.84
2023-10-15T09:48:39.267Z,13.78
2023-10-15T09:51:09.293Z,13.86
2023-10-15T09:53:37.930Z,13.58
2023-10-15T09:56:09.236Z,13.48
2023-10-15T09:58:39.795Z,13.61
2023-10-15T10:01:27.461Z,13.66
2023-10-15T10:04:08.472Z,13.85
2023-10-15T10:07:05.207Z,13.88
2023-10-15T10:10:19.925Z,13.74
2023-10-15T10:13:57.639Z,13.74
2023-10-15T10:16:29.770Z,13.72
2023-10-15T10:18:58.727Z,13.81
2023-10-15T10:21:32.371Z,13.86
2023-10-15T10:24:01.127Z,13.76
2023-10-15T10:26:36.627Z,13.78
2023-10-15T10:29:04.438Z,13.96
2023-10-15T10:31:38.012Z,14.07
2023-10-15T10:34:07.178Z,14.11
2023-10-15T10:36:40.340Z,14.13
2023-10-15T10:39:09.395Z,14.02
2023-10-15T10:41:46.224Z,13.95
2023-10-15T10:44:27.686Z,13.91
2023-10-15T10:46:58.210Z,13.87
2023-10-15T10:49:57.370Z,13.86
2023-10-15T10:52:37.149Z,13.99
2023-10-15T10:55:34.537Z,13.87
2023-10-15T10:58:25.707Z,13.87
2023-10-15T11:00:54.794Z,13.97
2023-10-15T11:03:27.708Z,13.70
2023-10-15T11:05:56.814Z,13.77
2023-10-15T11:08:26.522Z,14.06
2023-10-15T11:11:00.792Z,14.08
2023-10-15T11:13:30.502Z,14.09
2023-10-15T11:16:01.173Z,13.90
2023-10-15T11:18:30.897Z,13.91
2023-10-15T11:21:24.233Z,13.99
2023-10-15T11:23:55.112Z,14.09
2023-10-15T11:26:24.758Z,14.10
2023-10-15T11:28:54.405Z,13.98
2023-10-15T11:31:23.218Z,13.92
2023-10-15T11:33:52.825Z,14.03
2023-10-15T11:36:24.299Z,13.87
2023-10-15T11:38:55.298Z,13.94
2023-10-15T11:41:25.338Z,13.87
2023-10-15T11:43:56.636Z,13.93
2023-10-15T11:46:25.580Z,14.20
2023-10-15T11:48:55.173Z,14.24
2023-10-15T11:51:26.378Z,14.16
2023-10-15T11:54:02.649Z,13.92
2023-10-15T11:56:33.056Z,14.01
2023-10-15T11:59:01.977Z,13.91
2023-10-15T12:01:29.806Z,13.83
2023-10-15T12:03:59.467Z,13.84
2023-10-15T12:06:28.424Z,13.98
2023-10-15T12:09:00.043Z,13.96
2023-10-15T12:11:28.687Z,13.96
2023-10-15T12:13:57.366Z,13.83
2023-10-15T12:16:25.206Z,13.83
2023-10-15T12:18:53.884Z,13.93
2023-10-15T12:21:23.638Z,13.79
2023-10-15T12:23:52.294Z,13.92
2023-10-15T12:26:22.541Z,13.82
2023-10-15T12:28:53.397Z,13.93
2023-10-15T12:31:22.375Z,13.96
2023-10-15T12:33:51.156Z,13.78
2023-10-15T12:36:20.045Z,13.73
2023-10-15T12:38:50.156Z,13.79
2023-10-15T12:41:22.854Z,13.73
2023-10-15T12:43:51.824Z,13.65
2023-10-15T12:46:20.579Z,13.76
2023-10-15T12:48:49.299Z,13.69
2023-10-15T12:51:17.120Z,13.54
2023-10-15T12:53:52.481Z,13.60
2023-10-15T12:56:21.265Z,13.67
2023-10-15T12:58:50.937Z,13.72
2023-10-15T13:01:21.633Z,13.72
2023-10-15T13:03:50.721Z,13.68
2023-10-15T13:06:23.232Z,13.77
2023-10-15T13:08:54.516Z,13.60
2023-10-15T13:11:23.282Z,13.59
2023-10-15T13:13:52.948Z,13.70
2023-10-15T13:16:21.835Z,13.37
2023-10-15T13:18:53.658Z,13.49
2023-10-15T13:21:22.491Z,13.47
2023-10-15T13:23:51.296Z,13.57
2023-10-15T13:26:20.991Z,13.47
2023-10-15T13:28:50.686Z,13.34
2023-10-15T13:31:19.705Z,13.22
2023-10-15T13:33:49.234Z,13.20
2023-10-15T13:36:18.745Z,13.32
2023-10-15T13:38:47.429Z,13.20
2023-10-15T13:41:16.241Z,13.25
2023-10-15T13:43:45.756Z,13.29
2023-10-15T13:46:14.833Z,13.17
2023-10-15T13:48:45.766Z,13.59
2023-10-15T13:51:18.737Z,13.49
2023-10-15T13:53:48.042Z,13.23
2023-10-15T13:56:15.905Z,12.87
2023-10-15T13:58:44.867Z,13.30
2023-10-15T14:01:12.870Z,13.26
2023-10-15T14:03:45.677Z,13.23
2023-10-15T14:06:14.648Z,13.21
2023-10-15T14:08:43.331Z,13.22
2023-10-15T14:11:13.505Z,13.17
2023-10-15T14:13:44.182Z,13.08
2023-10-15T14:16:13.055Z,13.16
2023-10-15T14:18:43.014Z,13.02
2023-10-15T14:21:14.902Z,13.01
2023-10-15T14:23:47.265Z,13.01
2023-10-15T14:26:17.711Z,12.91
2023-10-15T14:28:47.518Z,12.83
2023-10-15T14:31:18.031Z,13.06
2023-10-15T14:33:46.858Z,12.85
2023-10-15T14:36:16.409Z,12.79
2023-10-15T14:38:46.778Z,12.81
2023-10-15T14:41:16.127Z,12.81
2023-10-15T14:43:46.040Z,12.90
2023-10-15T14:46:14.259Z,12.77
2023-10-15T14:48:43.884Z,12.68
2023-10-15T14:51:11.722Z,12.72
2023-10-15T14:53:40.741Z,12.73
2023-10-15T14:56:09.763Z,12.59
2023-10-15T14:58:38.715Z,12.81
2023-10-15T15:01:06.606Z,12.83
2023-10-15T15:03:34.710Z,12.62
2023-10-15T15:06:07.611Z,12.68
2023-10-15T15:08:40.850Z,12.71
2023-10-15T15:11:09.745Z,12.39
2023-10-15T15:13:38.624Z,12.46
2023-10-15T15:16:09.554Z,12.32
2023-10-15T15:18:37.463Z,12.19
2023-10-15T15:21:07.486Z,12.37
2023-10-15T15:23:36.739Z,12.32
2023-10-15T15:26:07.101Z,12.33
2023-10-15T15:28:38.207Z,12.47
2023-10-15T15:31:08.050Z,12.43
2023-10-15T15:33:36.893Z,12.34
2023-10-15T15:36:06.315Z,12.29
2023-10-15T15:38:35.431Z,12.14
2023-10-15T15:41:08.799Z,12.25
2023-10-15T15:43:38.880Z,12.10
2023-10-15T15:46:13.410Z,12.12
2023-10-15T15:48:41.467Z,11.92
2023-10-15T15:51:13.104Z,12.12
2023-10-15T15:53:42.991Z,12.00
2023-10-15T15:56:14.664Z,11.97
2023-10-15T15:58:47.573Z,11.80
2023-10-15T16:03:58.544Z,11.88
2023-10-15T16:06:26.716Z,11.92
2023-10-15T16:08:55.197Z,11.81
2023-10-15T16:11:23.023Z,11.96
2023-10-15T16:13:53.521Z,11.76
2023-10-15T16:16:23.080Z,11.79
2023-10-15T16:18:51.750Z,11.94
2023-10-15T16:21:20.605Z,11.74
2023-10-15T16:23:49.455Z,11.71
2023-10-15T16:26:21.264Z,11.82
2023-10-15T16:28:50.014Z,11.68
2023-10-15T16:31:18.929Z,11.83
2023-10-15T16:33:49.718Z,11.68
2023-10-15T16:36:17.516Z,11.62
2023-10-15T16:38:45.335Z,11.49
2023-10-15T16:41:13.373Z,11.69
2023-10-15T16:43:41.318Z,11.65
2023-10-15T16:46:10.342Z,11.70
2023-10-15T16:48:40.003Z,11.58
2023-10-15T16:51:22.694Z,11.57
2023-10-15T16:53:55.077Z,11.64
2023-10-15T16:56:24.069Z,11.51
2023-10-15T16:58:52.616Z,11.42
2023-10-15T17:01:22.286Z,11.52
2023-10-15T17:03:50.134Z,11.51
2023-10-15T17:06:19.314Z,11.66
2023-10-15T17:08:50.212Z,11.44
2023-10-15T17:11:18.348Z,11.32
2023-10-15T17:13:48.022Z,11.41
2023-10-15T17:16:18.138Z,11.27
2023-10-15T17:18:49.033Z,11.35
2023-10-15T17:21:18.736Z,11.33
2023-10-15T17:23:48.373Z,11.42
2023-10-15T17:26:17.917Z,11.21
2023-10-15T17:28:50.111Z,11.33
2023-10-15T17:31:18.068Z,11.23
2023-10-15T17:33:48.362Z,11.09
2023-10-15T17:36:23.412Z,11.28
2023-10-15T17:38:55.160Z,11.09
2023-10-15T17:41:24.892Z,11.19
2023-10-15T17:43:53.898Z,11.05
2023-10-15T17:46:25.047Z,11.12
2023-10-15T17:48:56.346Z,11.26
2023-10-15T17:51:25.124Z,11.21
2023-10-15T17:53:53.103Z,11.11
2023-10-15T17:56:22.534Z,11.04
2023-10-15T17:58:54.921Z,10.93
2023-10-15T18:01:25.962Z,10.97
2023-10-15T18:03:53.932Z,10.93
2023-10-15T18:06:24.291Z,10.89
2023-10-15T18:08:52.205Z,10.84
2023-10-15T18:11:22.652Z,10.91
2023-10-15T18:13:51.464Z,10.67
2023-10-15T18:16:21.185Z,10.68
2023-10-15T18:18:50.101Z,10.63
2023-10-15T18:21:18.081Z,10.55
2023-10-15T18:23:46.526Z,10.70
2023-10-15T18:26:18.177Z,10.51
2023-10-15T18:28:47.741Z,10.46
2023-10-15T18:31:15.722Z,10.32
2023-10-15T18:33:45.709Z,10.25
2023-10-15T18:36:17.796Z,10.31
2023-10-15T18:38:48.164Z,10.33
2023-10-15T18:41:16.917Z,10.03
2023-10-15T18:43:47.820Z,10.10
2023-10-15T18:46:17.312Z,9.76
2023-10-15T18:48:46.570Z,9.29
2023-10-15T18:51:36.533Z,9.36
2023-10-15T18:54:04.864Z,9.41
2023-10-15T18:56:35.558Z,9.53
2023-10-15T18:59:04.312Z,9.37
2023-10-15T19:01:35.269Z,9.40
2023-10-15T19:04:05.222Z,9.46
2023-10-15T19:06:34.086Z,9.53
2023-10-15T19:09:05.738Z,9.29
2023-10-15T19:11:34.425Z,9.43
2023-10-15T19:14:03.921Z,9.47
2023-10-15T19:16:34.440Z,9.42
2023-10-15T19:19:02.452Z,9.52
2023-10-15T19:21:33.912Z,9.23
2023-10-15T19:24:01.708Z,9.37
2023-10-15T19:26:29.581Z,9.38
2023-10-15T19:28:57.363Z,9.29
2023-10-15T19:31:26.135Z,9.35
2023-10-15T19:33:54.042Z,9.47
2023-10-15T19:36:23.424Z,9.22
2023-10-15T19:38:51.380Z,9.17
2023-10-15T19:41:21.859Z,9.08
2023-10-15T19:43:51.497Z,9.15
2023-10-15T19:46:19.974Z,9.12
2023-10-15T19:48:47.778Z,8.97
2023-10-15T19:51:19.153Z,9.06
2023-10-15T19:53:49.231Z,8.96
2023-10-15T19:56:17.318Z,9.00
2023-10-15T19:58:47.824Z,8.89
2023-10-15T20:01:16.546Z,8.33
2023-10-15T20:04:02.826Z,8.40
2023-10-15T20:06:35.840Z,8.33
2023-10-15T20:09:11.511Z,8.51
2023-10-15T20:11:40.645Z,8.58
2023-10-15T20:14:08.531Z,8.62
2023-10-15T20:16:37.512Z,8.35
2023-10-15T20:19:07.030Z,8.66
2023-10-15T20:21:37.762Z,8.46
2023-10-15T20:24:10.170Z,8.25
2023-10-15T20:26:39.135Z,8.21
2023-10-15T20:29:07.973Z,7.87
2023-10-15T20:31:37.057Z,7.18
2023-10-15T20:34:05.906Z,6.84
2023-10-15T20:36:35.906Z,7.09
2023-10-15T20:39:07.887Z,7.37
2023-10-15T20:41:38.990Z,7.77
2023-10-15T20:44:06.776Z,7.95
2023-10-15T20:46:35.580Z,7.87
2023-10-15T20:49:06.367Z,8.17
2023-10-15T20:51:37.217Z,8.16
2023-10-15T20:54:07.468Z,8.25
2023-10-15T20:56:35.339Z,7.41
2023-10-15T20:59:05.046Z,7.06
2023-10-15T21:01:33.697Z,7.62
2023-10-15T21:04:03.584Z,8.19
2023-10-15T21:06:32.353Z,8.32
2023-10-15T21:09:02.301Z,8.60
2023-10-15T21:11:30.056Z,8.50
2023-10-15T21:13:57.981Z,8.55
2023-10-15T21:16:26.063Z,8.66
2023-10-15T21:18:54.801Z,8.59
2023-10-15T21:21:22.914Z,8.50
2023-10-15T21:23:52.670Z,8.60
2023-10-15T21:26:26.356Z,8.49
2023-10-15T21:28:54.125Z,8.56
2023-10-15T21:31:23.169Z,8.78
2023-10-15T21:33:51.090Z,8.51
2023-10-15T21:36:18.967Z,8.54
2023-10-15T21:38:47.562Z,8.55
2023-10-15T21:41:18.328Z,8.22
2023-10-15T21:43:49.691Z,8.53
2023-10-15T21:46:17.561Z,8.64
2023-10-15T21:48:48.313Z,8.42
2023-10-15T21:51:16.961Z,8.28
2023-10-15T21:53:44.782Z,8.48
2023-10-15T21:56:13.129Z,8.43
2023-10-15T21:58:42.955Z,8.22
2023-10-15T22:01:11.679Z,8.35
2023-10-15T22:03:41.294Z,8.37
2023-10-15T22:06:09.960Z,8.29
2023-10-15T22:08:42.491Z,8.30
2023-10-15T22:11:12.547Z,8.14
2023-10-15T22:13:40.643Z,8.17
2023-10-15T22:16:08.971Z,8.24
2023-10-15T22:18:44.671Z,8.42
2023-10-15T22:21:16.488Z,8.38
2023-10-15T22:23:49.024Z,8.30
2023-10-15T22:26:24.280Z,8.45
2023-10-15T22:28:59.253Z,8.61
2023-10-15T22:31:28.430Z,8.46
2023-10-15T22:33:57.027Z,8.34
2023-10-15T22:36:27.534Z,8.36
2023-10-15T22:38:55.644Z,8.47
2023-10-15T22:41:23.390Z,8.25
2023-10-15T22:43:52.997Z,8.16
2023-10-15T22:46:20.799Z,8.24
2023-10-15T22:48:50.686Z,8.27
2023-10-15T22:51:19.451Z,8.07
2023-10-15T22:53:47.640Z,8.26
2023-10-15T22:56:15.443Z,8.23
2023-10-15T22:58:45.318Z,8.23
2023-10-15T23:01:20.264Z,8.08
2023-10-15T23:03:49.931Z,8.21
2023-10-15T23:06:18.613Z,8.24
2023-10-15T23:08:47.461Z,8.44
2023-10-15T23:11:15.349Z,8.26
2023-10-15T23:13:43.182Z,8.45
2023-10-15T23:16:16.553Z,8.46
2023-10-15T23:18:46.809Z,8.41
2023-10-15T23:21:19.045Z,8.45
2023-10-15T23:23:47.765Z,8.43
2023-10-15T23:26:16.038Z,8.51
2023-10-15T23:28:44.002Z,8.45
2023-10-15T23:31:12.416Z,8.44
2023-10-15T23:33:40.625Z,8.35
2023-10-15T23:36:09.325Z,8.28
2023-10-15T23:38:37.136Z,8.32
2023-10-15T23:41:05.715Z,8.12
2023-10-15T23:43:34.635Z,8.09
2023-10-15T23:46:06.269Z,7.83
2023-10-15T23:48:38.813Z,7.73
2023-10-15T23:51:13.120Z,7.84
2023-10-15T23:53:41.583Z,8.05
2023-10-15T23:56:24.460Z,7.34
2023-10-15T23:58:57.886Z,7.09
